createdAt,value
2023-10-30T00:01:40.071Z,11.49
2023-10-30T00:04:25.183Z,11.49
2023-10-30T00:07:10.240Z,11.49
2023-10-30T00:09:55.303Z,11.47
2023-10-30T00:12:40.490Z,11.48
2023-10-30T00:15:25.554Z,11.53
2023-10-30T00:18:10.855Z,11.49
2023-10-30T00:20:56.014Z,11.52
2023-10-30T00:23:41.061Z,11.55
2023-10-30T00:26:26.185Z,11.56
2023-10-30T00:29:11.166Z,11.59
2023-10-30T00:31:56.364Z,11.63
2023-10-30T00:34:41.445Z,11.62
2023-10-30T00:37:26.535Z,11.64
2023-10-30T00:40:11.611Z,11.62
2023-10-30T00:42:56.759Z,11.57
2023-10-30T00:45:41.966Z,11.56
2023-10-30T00:48:26.910Z,11.63
2023-10-30T00:51:12.221Z,11.66
2023-10-30T00:53:57.049Z,11.67
2023-10-30T00:56:42.332Z,11.67
2023-10-30T00:59:27.532Z,11.71
2023-10-30T01:02:12.612Z,11.71
2023-10-30T01:04:57.930Z,11.72
2023-10-30T01:07:42.731Z,11.76
2023-10-30T01:10:27.839Z,11.80
2023-10-30T01:13:12.815Z,11.74
2023-10-30T01:15:58.227Z,11.73
2023-10-30T01:18:43.297Z,11.70
2023-10-30T01:21:28.215Z,11.67
2023-10-30T01:24:13.416Z,11.66
2023-10-30T01:26:58.326Z,11.66
2023-10-30T01:29:43.561Z,11.62
2023-10-30T01:32:28.592Z,11.58
2023-10-30T01:35:13.788Z,11.54
2023-10-30T01:37:58.884Z,11.50
2023-10-30T01:40:43.988Z,11.49
2023-10-30T01:43:29.167Z,11.46
2023-10-30T01:46:14.142Z,11.44
2023-10-30T01:48:59.247Z,11.41
2023-10-30T01:51:44.280Z,11.40
2023-10-30T01:54:29.380Z,11.40
2023-10-30T01:57:14.376Z,11.41
2023-10-30T01:59:59.375Z,11.34
2023-10-30T02:02:44.649Z,11.35
2023-10-30T02:05:29.553Z,11.33
2023-10-30T02:08:14.749Z,11.31
2023-10-30T02:10:59.795Z,11.31
2023-10-30T02:13:44.994Z,11.26
2023-10-30T02:16:30.006Z,11.25
2023-10-30T02:19:15.195Z,11.15
2023-10-30T02:22:00.171Z,11.12
2023-10-30T02:24:45.299Z,11.15
2023-10-30T02:27:30.507Z,11.09
2023-10-30T02:30:15.576Z,11.10
2023-10-30T02:33:00.533Z,11.12
2023-10-30T02:35:45.604Z,11.14
2023-10-30T02:38:30.874Z,11.15
2023-10-30T02:41:16.060Z,11.14
2023-10-30T02:44:01.228Z,11.15
2023-10-30T02:46:46.393Z,11.10
2023-10-30T02:49:31.420Z,11.06
2023-10-30T02:52:16.648Z,11.03
2023-10-30T02:55:01.806Z,10.96
2023-10-30T02:57:47.000Z,10.93
2023-10-30T03:00:31.991Z,10.91
2023-10-30T03:03:17.193Z,10.93
2023-10-30T03:06:02.204Z,10.92
2023-10-30T03:08:47.281Z,10.89
2023-10-30T03:11:32.410Z,10.87
2023-10-30T03:14:17.473Z,10.84
2023-10-30T03:17:02.646Z,10.78
2023-10-30T03:19:48.051Z,10.85
2023-10-30T03:22:32.988Z,10.87
2023-10-30T03:25:18.169Z,10.93
2023-10-30T03:28:03.125Z,10.87
2023-10-30T03:30:48.296Z,10.79
2023-10-30T03:33:33.291Z,10.80
2023-10-30T03:36:18.456Z,10.80
2023-10-30T03:39:03.626Z,10.76
2023-10-30T03:41:48.783Z,10.82
2023-10-30T03:44:33.899Z,10.83
2023-10-30T03:47:18.939Z,10.86
2023-10-30T03:50:04.152Z,10.91
2023-10-30T03:52:49.240Z,10.94
2023-10-30T03:55:34.411Z,10.92
2023-10-30T03:58:19.482Z,10.90
2023-10-30T04:01:04.563Z,10.90
2023-10-30T04:03:49.785Z,10.87
2023-10-30T04:06:34.772Z,10.90
2023-10-30T04:09:20.049Z,10.91
2023-10-30T04:12:05.040Z,10.86
2023-10-30T04:14:50.395Z,10.84
2023-10-30T04:17:35.489Z,10.78
2023-10-30T04:20:20.585Z,10.69
2023-10-30T04:23:05.700Z,10.67
2023-10-30T04:25:50.624Z,10.63
2023-10-30T04:28:35.973Z,10.64
2023-10-30T04:31:20.959Z,10.59
2023-10-30T04:34:06.162Z,10.61
2023-10-30T04:36:51.269Z,10.57
2023-10-30T04:39:36.333Z,10.56
2023-10-30T04:42:21.581Z,10.47
2023-10-30T04:45:06.544Z,10.40
2023-10-30T04:47:51.861Z,10.41
2023-10-30T04:50:36.796Z,10.40
2023-10-30T04:53:22.181Z,10.33
2023-10-30T04:56:07.336Z,10.36
2023-10-30T04:58:52.504Z,10.39
2023-10-30T05:01:37.681Z,10.40
2023-10-30T05:04:22.776Z,10.38
2023-10-30T05:07:08.174Z,10.38
2023-10-30T05:09:53.173Z,10.32
2023-10-30T05:12:38.483Z,10.34
2023-10-30T05:15:23.565Z,10.36
2023-10-30T05:18:08.884Z,10.35
2023-10-30T05:20:54.033Z,10.40
2023-10-30T05:23:38.794Z,10.40
2023-10-30T05:26:23.918Z,10.42
2023-10-30T05:29:09.041Z,10.40
2023-10-30T05:31:54.150Z,10.40
2023-10-30T05:34:40.718Z,10.40
2023-10-30T05:37:26.838Z,10.48
2023-10-30T05:40:12.675Z,10.56
2023-10-30T05:42:57.496Z,10.56
2023-10-30T05:45:42.764Z,10.61
2023-10-30T05:48:27.838Z,10.65
2023-10-30T05:51:13.143Z,10.67
2023-10-30T05:53:58.347Z,10.66
2023-10-30T05:56:43.484Z,10.67
2023-10-30T05:59:28.623Z,10.58
2023-10-30T06:02:13.621Z,10.61
2023-10-30T06:04:59.050Z,10.54
2023-10-30T06:07:44.103Z,10.49
2023-10-30T06:10:29.223Z,10.47
2023-10-30T06:13:14.195Z,10.45
2023-10-30T06:15:59.246Z,10.52
2023-10-30T06:18:44.452Z,10.56
2023-10-30T06:21:29.567Z,10.49
2023-10-30T06:24:14.594Z,10.61
2023-10-30T06:26:59.624Z,10.71
2023-10-30T06:29:44.843Z,10.74
2023-10-30T06:32:29.980Z,10.78
2023-10-30T06:35:15.161Z,10.81
2023-10-30T06:38:00.222Z,10.88
2023-10-30T06:40:45.348Z,10.91
2023-10-30T06:43:30.530Z,11.02
2023-10-30T06:46:15.497Z,11.14
2023-10-30T06:49:00.670Z,11.24
2023-10-30T06:51:45.840Z,11.31
2023-10-30T06:54:31.048Z,11.43
2023-10-30T06:57:16.213Z,11.56
2023-10-30T07:00:01.216Z,11.71
2023-10-30T07:02:46.370Z,11.82
2023-10-30T07:05:31.336Z,11.90
2023-10-30T07:08:16.581Z,12.02
2023-10-30T07:11:01.592Z,12.03
2023-10-30T07:13:46.788Z,12.10
2023-10-30T07:16:32.026Z,12.16
2023-10-30T07:19:17.077Z,12.20
2023-10-30T07:22:02.360Z,12.17
2023-10-30T07:24:47.502Z,12.23
2023-10-30T07:27:32.599Z,12.36
2023-10-30T07:30:17.663Z,12.40
2023-10-30T07:33:02.932Z,12.49
2023-10-30T07:35:48.963Z,12.56
2023-10-30T07:38:34.119Z,12.63
2023-10-30T07:41:19.394Z,12.65
2023-10-30T07:44:04.441Z,12.70
2023-10-30T07:46:49.656Z,12.71
2023-10-30T07:49:34.663Z,12.69
2023-10-30T07:52:19.883Z,12.75
2023-10-30T07:55:05.007Z,12.83
2023-10-30T07:57:50.191Z,12.88
2023-10-30T08:00:44.261Z,12.90
2023-10-30T08:03:39.866Z,13.00
2023-10-30T08:06:24.793Z,13.02
2023-10-30T08:09:09.852Z,13.03
2023-10-30T08:11:54.921Z,13.08
2023-10-30T08:14:39.989Z,13.08
2023-10-30T08:17:24.969Z,13.11
2023-10-30T08:20:10.168Z,13.17
2023-10-30T08:22:55.171Z,13.19
2023-10-30T08:25:40.183Z,13.20
2023-10-30T08:28:25.454Z,13.29
2023-10-30T08:31:10.596Z,13.40
2023-10-30T08:33:55.717Z,13.48
2023-10-30T08:36:40.680Z,13.51
2023-10-30T08:39:25.907Z,13.55
2023-10-30T08:42:10.883Z,13.62
2023-10-30T08:44:56.017Z,13.65
2023-10-30T08:47:41.073Z,13.66
2023-10-30T08:50:26.697Z,13.63
2023-10-30T08:53:11.944Z,13.62
2023-10-30T08:55:58.889Z,13.60
2023-10-30T08:58:44.131Z,13.58
2023-10-30T09:01:29.199Z,13.55
2023-10-30T09:04:14.454Z,13.53
2023-10-30T09:06:59.490Z,13.55
2023-10-30T09:09:44.432Z,13.51
2023-10-30T09:12:29.677Z,13.51
2023-10-30T09:15:14.619Z,13.52
2023-10-30T09:17:59.783Z,13.56
2023-10-30T09:20:44.703Z,13.59
2023-10-30T09:23:29.786Z,13.62
2023-10-30T09:26:14.925Z,13.69
2023-10-30T09:29:00.041Z,13.83
2023-10-30T09:31:45.317Z,13.90
2023-10-30T09:34:30.352Z,13.99
2023-10-30T09:37:15.570Z,14.10
2023-10-30T09:40:00.737Z,14.27
2023-10-30T09:42:45.955Z,14.35
2023-10-30T09:45:31.159Z,14.38
2023-10-30T09:48:16.075Z,14.48
2023-10-30T09:51:01.259Z,14.56
2023-10-30T09:53:46.313Z,14.70
2023-10-30T09:56:31.585Z,14.85
2023-10-30T09:59:16.604Z,14.97
2023-10-30T10:02:02.066Z,15.09
2023-10-30T10:04:47.329Z,15.17
2023-10-30T10:07:32.408Z,15.23
2023-10-30T10:10:17.585Z,15.29
2023-10-30T10:13:02.717Z,15.29
2023-10-30T10:15:47.855Z,15.29
2023-10-30T10:18:32.715Z,15.37
2023-10-30T10:21:17.883Z,15.41
2023-10-30T10:24:03.157Z,15.40
2023-10-30T10:26:48.079Z,15.41
2023-10-30T10:29:33.327Z,15.42
2023-10-30T10:32:18.353Z,15.44
2023-10-30T10:35:03.530Z,15.43
2023-10-30T10:37:48.529Z,15.43
2023-10-30T10:40:33.786Z,15.44
2023-10-30T10:43:18.846Z,15.50
2023-10-30T10:46:04.098Z,15.57
2023-10-30T10:48:49.165Z,15.59
2023-10-30T10:51:34.107Z,15.67
2023-10-30T10:54:19.200Z,15.72
2023-10-30T10:57:04.347Z,15.77
2023-10-30T10:59:49.630Z,15.80
2023-10-30T11:02:34.561Z,15.84
2023-10-30T11:05:19.585Z,15.86
2023-10-30T11:08:04.718Z,15.93
2023-10-30T11:10:49.901Z,16.04
2023-10-30T11:13:35.141Z,16.17
2023-10-30T11:16:20.262Z,16.36
2023-10-30T11:19:05.375Z,16.47
2023-10-30T11:21:50.644Z,16.58
2023-10-30T11:24:35.657Z,16.62
2023-10-30T11:27:20.643Z,16.69
2023-10-30T11:30:05.583Z,16.75
2023-10-30T11:32:50.946Z,16.78
2023-10-30T11:35:35.907Z,16.83
2023-10-30T11:38:21.119Z,16.88
2023-10-30T11:41:06.266Z,16.89
2023-10-30T11:43:51.471Z,16.76
2023-10-30T11:46:36.728Z,16.66
2023-10-30T11:49:21.611Z,16.67
2023-10-30T11:52:06.915Z,16.54
2023-10-30T11:54:52.484Z,16.57
2023-10-30T11:57:38.322Z,16.62
2023-10-30T12:00:23.211Z,16.74
2023-10-30T12:03:08.226Z,16.81
2023-10-30T12:05:53.391Z,16.85
2023-10-30T12:08:38.380Z,16.89
2023-10-30T12:11:23.543Z,16.98
2023-10-30T12:14:08.536Z,17.03
2023-10-30T12:16:53.791Z,17.10
2023-10-30T12:19:38.742Z,17.19
2023-10-30T12:22:24.100Z,17.36
2023-10-30T12:25:09.146Z,17.56
2023-10-30T12:27:54.283Z,17.59
2023-10-30T12:30:39.502Z,17.53
2023-10-30T12:33:24.451Z,17.50
2023-10-30T12:36:09.500Z,17.49
2023-10-30T12:38:54.601Z,17.43
2023-10-30T12:41:39.706Z,17.41
2023-10-30T12:44:24.781Z,17.50
2023-10-30T12:47:12.452Z,17.52
2023-10-30T12:49:57.520Z,17.43
2023-10-30T12:52:42.557Z,17.43
2023-10-30T12:55:27.755Z,17.40
2023-10-30T12:58:12.769Z,17.52
2023-10-30T13:03:45.662Z,17.53
2023-10-30T13:06:30.700Z,17.58
2023-10-30T13:09:15.752Z,17.46
2023-10-30T13:12:01.009Z,17.35
2023-10-30T13:14:46.169Z,17.19
2023-10-30T13:17:31.287Z,16.99
2023-10-30T13:20:16.252Z,16.85
2023-10-30T13:23:01.406Z,16.73
2023-10-30T13:25:46.419Z,16.65
2023-10-30T13:28:31.634Z,16.68
2023-10-30T13:31:16.749Z,16.68
2023-10-30T13:34:02.058Z,16.69
2023-10-30T13:36:47.096Z,16.70
2023-10-30T13:39:32.145Z,16.69
2023-10-30T13:42:17.351Z,16.71
2023-10-30T13:45:02.341Z,16.73
2023-10-30T13:47:47.611Z,16.69
2023-10-30T13:50:32.731Z,16.73
2023-10-30T13:53:17.876Z,16.68
2023-10-30T13:56:02.991Z,16.65
2023-10-30T13:58:48.105Z,16.56
2023-10-30T14:01:33.455Z,16.46
2023-10-30T14:04:18.633Z,16.43
2023-10-30T14:07:03.846Z,16.31
2023-10-30T14:09:48.877Z,16.25
2023-10-30T14:12:33.747Z,16.22
2023-10-30T14:15:18.794Z,16.19
2023-10-30T14:18:04.048Z,16.27
2023-10-30T14:20:49.308Z,16.24
2023-10-30T14:23:34.419Z,16.26
2023-10-30T14:26:19.593Z,16.28
2023-10-30T14:29:04.519Z,16.26
2023-10-30T14:31:49.762Z,16.23
2023-10-30T14:34:35.017Z,16.17
2023-10-30T14:37:20.051Z,16.10
2023-10-30T14:40:05.289Z,16.04
2023-10-30T14:42:50.216Z,16.04
2023-10-30T14:45:35.319Z,16.01
2023-10-30T14:48:20.151Z,16.02
2023-10-30T14:51:05.372Z,16.01
2023-10-30T14:53:50.536Z,16.01
2023-10-30T14:56:35.545Z,15.98
2023-10-30T14:59:20.717Z,15.81
2023-10-30T15:02:05.603Z,15.64
2023-10-30T15:04:51.112Z,15.53
2023-10-30T15:07:36.428Z,15.54
2023-10-30T15:10:21.543Z,15.54
2023-10-30T15:13:06.744Z,15.50
2023-10-30T15:15:51.809Z,15.39
2023-10-30T15:18:36.899Z,15.35
2023-10-30T15:21:21.990Z,15.28
2023-10-30T15:24:07.071Z,15.03
2023-10-30T15:26:52.121Z,14.95
2023-10-30T15:29:37.341Z,14.86
2023-10-30T15:32:22.475Z,14.75
2023-10-30T15:35:07.589Z,14.69
2023-10-30T15:37:52.738Z,14.66
2023-10-30T15:40:37.772Z,14.59
2023-10-30T15:43:22.979Z,14.44
2023-10-30T15:46:07.891Z,14.10
2023-10-30T15:48:52.988Z,13.95
2023-10-30T15:51:38.091Z,13.91
2023-10-30T16:00:03.273Z,13.84
2023-10-30T16:02:48.301Z,13.86
2023-10-30T16:05:47.290Z,13.84
2023-10-30T16:14:13.597Z,13.70
2023-10-30T16:20:21.477Z,13.68
2023-10-30T16:22:51.507Z,13.60
2023-10-30T16:25:36.664Z,13.55
2023-10-30T16:28:21.809Z,13.58
2023-10-30T16:31:06.848Z,13.54
2023-10-30T16:33:51.792Z,13.49
2023-10-30T16:36:36.706Z,13.40
2023-10-30T16:39:21.906Z,13.27
2023-10-30T16:42:06.900Z,13.16
2023-10-30T16:44:52.130Z,13.02
2023-10-30T16:47:37.254Z,12.99
2023-10-30T16:50:22.358Z,12.99
2023-10-30T16:53:07.524Z,13.05
2023-10-30T16:55:52.479Z,12.99
2023-10-30T16:58:37.791Z,13.05
2023-10-30T17:01:22.870Z,13.05
2023-10-30T17:04:08.032Z,12.91
2023-10-30T17:06:53.049Z,12.82
2023-10-30T17:09:38.227Z,12.59
2023-10-30T17:12:23.488Z,12.58
2023-10-30T17:15:08.711Z,12.57
2023-10-30T17:17:53.746Z,12.48
2023-10-30T17:20:38.914Z,12.51
2023-10-30T17:23:24.152Z,12.53
2023-10-30T17:26:09.182Z,12.60
2023-10-30T17:28:54.330Z,12.58
2023-10-30T17:31:39.488Z,12.51
2023-10-30T17:34:24.559Z,12.50
2023-10-30T17:37:09.665Z,12.44
2023-10-30T17:39:55.020Z,12.42
2023-10-30T17:42:39.886Z,12.41
2023-10-30T17:45:24.937Z,12.39
2023-10-30T17:48:10.176Z,12.38
2023-10-30T17:50:55.230Z,12.33
2023-10-30T17:53:40.338Z,12.32
2023-10-30T17:56:25.571Z,12.23
2023-10-30T17:59:10.572Z,12.19
2023-10-30T18:01:55.886Z,12.15
2023-10-30T18:04:41.059Z,12.11
2023-10-30T18:07:26.021Z,11.98
2023-10-30T18:10:11.154Z,11.92
2023-10-30T18:12:56.333Z,11.87
2023-10-30T18:15:41.669Z,11.85
2023-10-30T18:18:26.844Z,11.81
2023-10-30T18:21:11.941Z,11.75
2023-10-30T18:23:56.807Z,11.74
2023-10-30T18:26:41.941Z,11.66
2023-10-30T18:29:29.080Z,11.62
2023-10-30T18:32:14.019Z,11.41
2023-10-30T18:34:59.273Z,11.24
2023-10-30T18:37:44.304Z,11.17
2023-10-30T18:40:29.465Z,11.07
2023-10-30T18:43:14.299Z,11.02
2023-10-30T18:45:59.446Z,11.07
2023-10-30T18:48:44.630Z,11.00
2023-10-30T18:51:29.684Z,10.81
2023-10-30T18:54:14.900Z,10.52
2023-10-30T18:56:59.866Z,10.45
2023-10-30T18:59:44.996Z,10.45
2023-10-30T19:02:30.112Z,10.48
2023-10-30T19:05:15.418Z,10.48
2023-10-30T19:08:00.494Z,10.41
2023-10-30T19:10:45.425Z,10.44
2023-10-30T19:13:30.561Z,10.44
2023-10-30T19:16:15.634Z,10.46
2023-10-30T19:19:00.648Z,10.39
2023-10-30T19:21:45.661Z,10.45
2023-10-30T19:24:30.796Z,10.55
2023-10-30T19:27:15.731Z,10.62
2023-10-30T19:30:00.855Z,10.50
2023-10-30T19:32:45.981Z,10.30
2023-10-30T19:35:31.111Z,10.26
2023-10-30T19:38:16.355Z,10.15
2023-10-30T19:41:01.482Z,10.12
2023-10-30T19:43:46.550Z,9.96
2023-10-30T19:46:36.581Z,9.86
2023-10-30T19:49:24.190Z,9.82
2023-10-30T19:52:09.458Z,9.76
2023-10-30T19:54:54.701Z,9.79
2023-10-30T19:57:39.626Z,9.79
2023-10-30T20:00:24.835Z,9.78
2023-10-30T20:03:09.794Z,9.77
2023-10-30T20:05:55.142Z,9.64
2023-10-30T20:08:40.209Z,9.66
2023-10-30T20:11:25.276Z,9.69
2023-10-30T20:14:10.458Z,9.87
2023-10-30T20:16:55.521Z,10.00
2023-10-30T20:19:40.685Z,10.08
2023-10-30T20:22:25.658Z,10.11
2023-10-30T20:25:10.692Z,10.17
2023-10-30T20:27:55.822Z,10.10
2023-10-30T20:30:40.990Z,9.98
2023-10-30T20:33:26.100Z,10.07
2023-10-30T20:36:11.205Z,10.10
2023-10-30T20:38:56.496Z,10.13
2023-10-30T20:41:41.502Z,10.17
2023-10-30T20:44:26.763Z,10.19
2023-10-30T20:47:11.713Z,10.29
2023-10-30T20:49:56.944Z,10.27
2023-10-30T20:52:41.978Z,10.36
2023-10-30T20:55:27.019Z,10.39
2023-10-30T20:58:12.229Z,10.49
2023-10-30T21:00:57.285Z,10.59
2023-10-30T21:03:42.643Z,10.62
2023-10-30T21:06:27.459Z,10.60
2023-10-30T21:09:12.572Z,10.59
2023-10-30T21:11:57.614Z,10.65
2023-10-30T21:14:42.680Z,10.64
2023-10-30T21:17:27.929Z,10.64
2023-10-30T21:20:12.928Z,10.60
2023-10-30T21:22:57.981Z,10.68
2023-10-30T21:25:42.973Z,10.74
2023-10-30T21:28:28.266Z,10.76
2023-10-30T21:31:13.522Z,10.79
2023-10-30T21:33:58.436Z,10.84
2023-10-30T21:36:43.579Z,10.79
2023-10-30T21:39:28.648Z,10.71
2023-10-30T21:42:13.834Z,10.60
2023-10-30T21:44:58.813Z,10.55
2023-10-30T21:47:43.962Z,10.57
2023-10-30T21:50:29.139Z,10.58
2023-10-30T21:53:14.269Z,10.64
2023-10-30T21:55:59.400Z,10.68
2023-10-30T21:58:44.401Z,10.66
2023-10-30T22:01:29.615Z,10.54
2023-10-30T22:04:14.679Z,10.34
2023-10-30T22:06:59.842Z,10.16
2023-10-30T22:09:44.881Z,9.98
2023-10-30T22:12:30.131Z,9.84
2023-10-30T22:15:15.283Z,9.82
2023-10-30T22:18:00.607Z,9.81
2023-10-30T22:20:45.749Z,9.85
2023-10-30T22:23:30.805Z,9.92
2023-10-30T22:26:15.969Z,9.97
2023-10-30T22:29:00.992Z,9.94
2023-10-30T22:31:46.067Z,10.02
2023-10-30T22:34:31.192Z,10.02
2023-10-30T22:37:16.195Z,10.00
2023-10-30T22:40:01.430Z,10.10
2023-10-30T22:42:46.505Z,10.09
2023-10-30T22:45:31.768Z,10.10
2023-10-30T22:48:16.785Z,10.17
2023-10-30T22:51:02.012Z,10.20
2023-10-30T22:53:47.008Z,10.18
2023-10-30T22:56:32.171Z,10.15
2023-10-30T22:59:17.529Z,10.12
2023-10-30T23:02:02.512Z,10.12
2023-10-30T23:04:47.747Z,10.07
2023-10-30T23:07:33.273Z,10.03
2023-10-30T23:10:18.703Z,9.94
2023-10-30T23:13:03.831Z,9.92
2023-10-30T23:15:48.753Z,9.98
2023-10-30T23:18:33.951Z,9.99
2023-10-30T23:21:19.007Z,10.03
2023-10-30T23:24:04.029Z,10.07
2023-10-30T23:26:49.069Z,10.01
2023-10-30T23:29:34.175Z,9.99
2023-10-30T23:32:19.250Z,9.97
2023-10-30T23:35:04.459Z,9.94
2023-10-30T23:37:49.563Z,9.86
2023-10-30T23:40:34.528Z,9.82
2023-10-30T23:43:19.799Z,9.85
2023-10-30T23:46:04.908Z,9.91
2023-10-30T23:48:50.009Z,9.98
2023-10-30T23:51:35.157Z,10.01
2023-10-30T23:54:25.360Z,9.97
2023-10-30T23:57:15.902Z,9.91
